Hauptseite
METAR-TAF:

METAR-TAF

Flughäfen :

Larisa, Griechenland

Breite: 39-38N, Länge: 022-25E, Höhe: 73 m

METAR: fehlend

Zeit: 14:02 (12:02 UTC)

Prognose

Neuester Wetterbericht von vor 1 Stunde und 2 Minuten, um 11:00 UTC
Gültige Prognose vom 20 um 12 UTC bis 20 um 21 UTC
Wind 10 kt aus Ost
Sichtweite 10 km oder mehr
Leicht bewölkt in der Höhe von 2500 ft
Übergehend zu
vom 20 um 19 UTC bis 20 um 21 UTC
Aufgelockert bewölkt in der Höhe von 2500 ft

TAF: LGLR 201100Z 2012/2021 08010KT 9999 FEW025 BECMG 2019/2021 SCT025

Wetterbeobachtungen und Prognosen von mehr als 4000 Flughäfen (METAR und TAF Bericht).

Die verfügbaren Stationen werden durch gelbe und rote Markierungen auf der Karte dargestellt.

Führen Sie die Maus auf sie, um den Namen der Station zu sehen.

Darauf klicken, um die Beobachtung von Wetterbeobachtungen und Prognosen zu sehen.

Um die Karte zu ändern : klicken Sie auf den grünen Tasten mit einem schwarzen Kreuz Zum Vergrößern, auf den grünen Button mit einem Gedankenstrich zu verkleinern, oder auf die grünen Pfeile für benachbarte Karten.


METAR-TAF: